Time;durP1;ratioP1;P1;durP2;ratioP2;P2;SDS_P1;SDS_P2;PMS_P1;PMS_P2;Temp;Humidity;BMP_temperature;BMP_pressure;BME280_temperature;BME280_humidity;BME280_pressure;Samples;Min_cycle;Max_cycle;Signal;HPM_P1;HPM_P2
2022/04/26 03:37:12;;;;;;;10.93;8.60;;;;;;;;;;5051478;28;20095;-76
2022/04/26 03:39:39;;;;;;;9.70;8.38;;;;;;;;;;5051461;28;20111;-76
2022/04/26 03:42:06;;;;;;;11.70;8.75;;;;;;;;;;5050134;28;20075;-76
2022/04/26 03:44:32;;;;;;;9.57;8.55;;;;;;;;;;5051370;28;20085;-77
2022/04/26 03:46:59;;;;;;;8.90;8.00;;;;;;;;;;5051346;28;20081;-77
2022/04/26 03:49:25;;;;;;;11.00;7.82;;;;;;;;;;5051566;28;20087;-77
2022/04/26 03:51:52;;;;;;;14.90;8.48;;;;;;;;;;5049959;28;20084;-76
2022/04/26 03:54:20;;;;;;;12.30;8.57;;;;;;;;;;5050092;28;20041;-77
2022/04/26 03:56:46;;;;;;;10.13;8.02;;;;;;;;;;5050109;28;20041;-77
2022/04/26 03:59:13;;;;;;;8.63;7.72;;;;;;;;;;5051166;28;20093;-77
2022/04/26 04:01:39;;;;;;;8.73;7.75;;;;;;;;;;5051557;28;20080;-77
2022/04/26 04:04:06;;;;;;;8.60;7.65;;;;;;;;;;5051198;28;20051;-77
2022/04/26 04:06:32;;;;;;;8.93;7.68;;;;;;;;;;5051333;28;20084;-77
2022/04/26 04:08:59;;;;;;;11.40;8.40;;;;;;;;;;5051163;28;20103;-76
2022/04/26 04:11:25;;;;;;;10.18;7.70;;;;;;;;;;5049856;28;20091;-76
2022/04/26 04:13:52;;;;;;;10.95;7.43;;;;;;;;;;5050145;28;20085;-77
2022/04/26 04:16:18;;;;;;;10.60;7.78;;;;;;;;;;5051375;28;20434;-77
2022/04/26 04:21:30;;;;;;;9.75;8.02;;;;;;;;;;5051215;28;20420;-77
2022/04/26 04:23:56;;;;;;;11.38;8.45;;;;;;;;;;5051086;28;20091;-77
2022/04/26 04:26:23;;;;;;;10.27;7.97;;;;;;;;;;5051499;28;20080;-76
2022/04/26 04:28:49;;;;;;;9.60;7.55;;;;;;;;;;5055123;28;20095;-76
2022/04/26 04:31:16;;;;;;;12.13;8.13;;;;;;;;;;5054690;28;20435;-77
2022/04/26 04:33:43;;;;;;;9.43;7.05;;;;;;;;;;5054538;28;20106;-77
2022/04/26 04:36:09;;;;;;;11.02;7.45;;;;;;;;;;5054952;28;20057;-76
2022/04/26 04:38:36;;;;;;;8.57;7.22;;;;;;;;;;5054495;28;20489;-77
2022/04/26 04:41:02;;;;;;;9.80;7.53;;;;;;;;;;5054930;28;20045;-77
2022/04/26 04:43:29;;;;;;;9.48;8.48;;;;;;;;;;5054478;28;20081;-77
2022/04/26 04:45:55;;;;;;;10.93;7.90;;;;;;;;;;5054514;28;20485;-77
2022/04/26 04:48:22;;;;;;;13.15;7.85;;;;;;;;;;5054693;28;20088;-77
2022/04/26 04:50:48;;;;;;;10.35;8.25;;;;;;;;;;5054413;28;20577;-77
2022/04/26 04:53:17;;;;;;;9.98;8.02;;;;;;;;;;5054175;28;20084;-77
2022/04/26 04:55:43;;;;;;;12.32;7.80;;;;;;;;;;5054585;28;20441;-77
2022/04/26 04:58:10;;;;;;;9.38;7.53;;;;;;;;;;5054818;28;20145;-77
2022/04/26 05:00:36;;;;;;;10.57;7.68;;;;;;;;;;5054463;28;20080;-77
2022/04/26 05:03:03;;;;;;;12.32;7.50;;;;;;;;;;5052985;28;20052;-77
2022/04/26 05:05:30;;;;;;;11.52;7.35;;;;;;;;;;5054030;28;20099;-77
2022/04/26 05:07:58;;;;;;;8.30;6.82;;;;;;;;;;5054065;28;20132;-76
2022/04/26 05:10:25;;;;;;;9.20;6.78;;;;;;;;;;5052759;28;20061;-76
2022/04/26 05:12:51;;;;;;;11.43;7.22;;;;;;;;;;5054211;28;20072;-76
2022/04/26 05:15:18;;;;;;;10.30;7.13;;;;;;;;;;5053996;28;20088;-77
2022/04/26 05:17:44;;;;;;;9.38;7.57;;;;;;;;;;5052580;28;20084;-76
2022/04/26 05:20:11;;;;;;;9.57;7.57;;;;;;;;;;5053810;28;20049;-76
2022/04/26 05:25:22;;;;;;;11.63;8.10;;;;;;;;;;5053848;28;20075;-76
2022/04/26 05:27:48;;;;;;;15.25;10.00;;;;;;;;;;5053826;28;20194;-77
2022/04/26 05:30:15;;;;;;;14.85;9.90;;;;;;;;;;5053680;28;20501;-77
2022/04/26 05:32:41;;;;;;;13.75;9.82;;;;;;;;;;5053434;28;20124;-77
2022/04/26 05:35:08;;;;;;;17.15;10.20;;;;;;;;;;5053552;28;20076;-77
2022/04/26 05:37:34;;;;;;;14.73;10.10;;;;;;;;;;5052297;28;20155;-77
2022/04/26 05:40:03;;;;;;;16.42;10.65;;;;;;;;;;5053403;28;20489;-76
2022/04/26 05:42:30;;;;;;;14.88;9.98;;;;;;;;;;5053749;28;20467;-77
2022/04/26 05:44:57;;;;;;;18.58;11.15;;;;;;;;;;5053411;28;20084;-77
2022/04/26 05:47:23;;;;;;;16.95;11.88;;;;;;;;;;5053245;28;20515;-76
2022/04/26 05:49:50;;;;;;;15.30;11.25;;;;;;;;;;5053578;28;20088;-77
2022/04/26 05:52:16;;;;;;;18.35;12.50;;;;;;;;;;5051979;28;20052;-77
2022/04/26 05:54:43;;;;;;;17.63;12.57;;;;;;;;;;5052087;28;20087;-77
2022/04/26 05:57:09;;;;;;;18.10;12.07;;;;;;;;;;5053206;28;20122;-77
2022/04/26 05:59:36;;;;;;;17.27;12.73;;;;;;;;;;5053408;28;20095;-77
2022/04/26 06:02:02;;;;;;;16.88;11.80;;;;;;;;;;5053464;28;20084;-78
2022/04/26 06:04:29;;;;;;;16.85;11.75;;;;;;;;;;5053198;28;20053;-78
2022/04/26 06:06:55;;;;;;;15.13;11.40;;;;;;;;;;5052993;28;20176;-77
2022/04/26 06:09:22;;;;;;;18.13;11.80;;;;;;;;;;5052909;28;20053;-77
2022/04/26 06:11:48;;;;;;;16.55;12.23;;;;;;;;;;5053039;28;20077;-77
2022/04/26 06:14:15;;;;;;;16.40;12.93;;;;;;;;;;5052715;28;20072;-77
2022/04/26 06:16:41;;;;;;;17.75;12.15;;;;;;;;;;5052779;28;20493;-77
2022/04/26 06:19:08;;;;;;;15.88;12.05;;;;;;;;;;5052670;28;20053;-78
2022/04/26 06:21:34;;;;;;;15.75;10.88;;;;;;;;;;5052672;28;20049;-77
2022/04/26 06:24:01;;;;;;;16.17;10.60;;;;;;;;;;5051701;28;20107;-77
2022/04/26 06:26:27;;;;;;;19.00;11.82;;;;;;;;;;5052502;28;20053;-77
2022/04/26 06:28:54;;;;;;;15.90;10.45;;;;;;;;;;5052581;28;20059;-78
2022/04/26 06:31:20;;;;;;;13.10;10.95;;;;;;;;;;5052385;28;20465;-78
2022/04/26 06:33:47;;;;;;;15.88;11.50;;;;;;;;;;5051220;28;20103;-78
2022/04/26 06:36:13;;;;;;;18.73;11.05;;;;;;;;;;5051162;28;20489;-78
2022/04/26 06:38:40;;;;;;;14.60;10.95;;;;;;;;;;5052261;28;20098;-78
2022/04/26 06:41:06;;;;;;;16.55;10.32;;;;;;;;;;5051138;28;20081;-78
2022/04/26 06:43:34;;;;;;;16.77;11.25;;;;;;;;;;5052418;28;20122;-78
2022/04/26 06:46:00;;;;;;;14.45;11.55;;;;;;;;;;5052562;28;20057;-78
2022/04/26 06:48:27;;;;;;;15.63;11.13;;;;;;;;;;5052003;28;20048;-78
2022/04/26 06:50:54;;;;;;;12.38;10.07;;;;;;;;;;5051882;28;20398;-77
2022/04/26 06:53:21;;;;;;;16.42;10.57;;;;;;;;;;5051047;28;20477;-78
2022/04/26 06:55:48;;;;;;;14.60;10.95;;;;;;;;;;5051994;28;20532;-77
2022/04/26 06:58:14;;;;;;;15.30;10.93;;;;;;;;;;5051820;28;20076;-80
2022/04/26 07:00:41;;;;;;;16.33;11.23;;;;;;;;;;5051536;28;20409;-76
2022/04/26 07:03:07;;;;;;;14.80;11.50;;;;;;;;;;5051729;28;20080;-77
2022/04/26 07:05:34;;;;;;;16.15;11.02;;;;;;;;;;5051662;28;20102;-76
2022/04/26 07:08:00;;;;;;;16.00;10.65;;;;;;;;;;5050123;28;20095;-77
2022/04/26 07:10:28;;;;;;;18.85;11.98;;;;;;;;;;5052161;28;20048;-76
2022/04/26 07:12:55;;;;;;;14.95;11.43;;;;;;;;;;5050474;28;20045;-78
2022/04/26 07:15:22;;;;;;;15.13;11.05;;;;;;;;;;5051819;28;20077;-78
2022/04/26 07:17:48;;;;;;;14.18;10.90;;;;;;;;;;5051781;28;20084;-77
2022/04/26 07:20:15;;;;;;;13.75;10.55;;;;;;;;;;5051629;28;20045;-77
2022/04/26 07:22:42;;;;;;;17.05;10.45;;;;;;;;;;5051547;28;20076;-79
2022/04/26 07:25:10;;;;;;;14.27;9.60;;;;;;;;;;5050914;28;20053;-78
2022/04/26 07:27:36;;;;;;;12.00;10.05;;;;;;;;;;5050815;28;20045;-72
2022/04/26 07:30:03;;;;;;;15.18;10.27;;;;;;;;;;5051081;28;20044;-71
2022/04/26 07:35:14;;;;;;;14.63;9.80;;;;;;;;;;5048662;28;20480;-74
2022/04/26 07:37:41;;;;;;;11.90;8.98;;;;;;;;;;5050418;28;20099;-78
2022/04/26 07:40:08;;;;;;;13.57;10.02;;;;;;;;;;5051536;28;20041;-70
2022/04/26 07:42:35;;;;;;;12.48;9.48;;;;;;;;;;5051132;28;20095;-75
2022/04/26 07:45:02;;;;;;;12.60;8.40;;;;;;;;;;5050071;28;20136;-74
2022/04/26 07:47:30;;;;;;;13.43;9.18;;;;;;;;;;5051111;28;20103;-79
2022/04/26 07:50:00;;;;;;;12.57;9.05;;;;;;;;;;5051438;28;20464;-79
2022/04/26 07:52:28;;;;;;;10.13;9.13;;;;;;;;;;5051357;28;20084;-78
2022/04/26 07:54:54;;;;;;;11.13;8.15;;;;;;;;;;5051472;28;20041;-77
2022/04/26 07:57:21;;;;;;;9.88;8.45;;;;;;;;;;5050700;28;20049;-77
2022/04/26 07:59:47;;;;;;;10.75;8.77;;;;;;;;;;5051210;28;20077;-76
2022/04/26 08:02:14;;;;;;;9.20;7.90;;;;;;;;;;5037725;28;20385;-76
2022/04/26 08:04:45;;;;;;;8.77;7.32;;;;;;;;;;5049519;28;20045;-76
2022/04/26 08:07:11;;;;;;;10.65;7.45;;;;;;;;;;5034834;28;20083;-75
2022/04/26 08:09:39;;;;;;;11.48;8.07;;;;;;;;;;5041958;28;20099;-75
2022/04/26 08:12:06;;;;;;;9.65;7.72;;;;;;;;;;5052068;28;20053;-80
2022/04/26 08:14:33;;;;;;;8.75;6.72;;;;;;;;;;5053433;28;20505;-84
2022/04/26 08:17:03;;;;;;;8.90;7.50;;;;;;;;;;5054199;28;20045;-79
2022/04/26 08:19:29;;;;;;;8.02;6.60;;;;;;;;;;5044820;28;20127;-77
2022/04/26 08:21:56;;;;;;;6.38;5.78;;;;;;;;;;5053290;28;20045;-73
2022/04/26 08:27:30;;;;;;;7.43;6.10;;;;;;;;;;5054269;28;20052;-73
2022/04/26 08:29:58;;;;;;;6.75;5.80;;;;;;;;;;5052869;28;20114;-73
2022/04/26 08:32:28;;;;;;;8.95;6.25;;;;;;;;;;5054728;28;20080;-72
2022/04/26 08:34:55;;;;;;;6.25;5.63;;;;;;;;;;5051294;28;20080;-72
2022/04/26 08:37:23;;;;;;;7.65;5.85;;;;;;;;;;5053168;28;20091;-73
2022/04/26 08:39:52;;;;;;;7.25;6.13;;;;;;;;;;5054669;28;20053;-73
2022/04/26 08:42:38;;;;;;;7.22;5.82;;;;;;;;;;5052937;28;20505;-73
2022/04/26 08:45:12;;;;;;;7.90;5.25;;;;;;;;;;5054687;28;20049;-74
2022/04/26 08:53:09;;;;;;;5.93;5.32;;;;;;;;;;5054482;28;20479;-72
2022/04/26 08:55:43;;;;;;;5.07;4.57;;;;;;;;;;5054630;28;20095;-74
2022/04/26 08:58:11;;;;;;;11.30;5.40;;;;;;;;;;5054533;28;20095;-74
2022/04/26 09:01:00;;;;;;;5.20;4.70;;;;;;;;;;5053082;28;20389;-74
2022/04/26 09:03:29;;;;;;;5.10;3.97;;;;;;;;;;5054477;28;20053;-77
2022/04/26 09:06:10;;;;;;;5.30;4.13;;;;;;;;;;5038930;28;20079;-75
2022/04/26 09:08:37;;;;;;;5.97;4.32;;;;;;;;;;5053237;28;20084;-76
2022/04/26 09:11:03;;;;;;;4.07;3.65;;;;;;;;;;5051176;28;20072;-76
2022/04/26 09:13:40;;;;;;;4.75;3.63;;;;;;;;;;5049667;28;21412;-71
2022/04/26 09:16:14;;;;;;;3.97;3.58;;;;;;;;;;5052511;28;20057;-75
2022/04/26 09:18:48;;;;;;;5.43;4.10;;;;;;;;;;5051343;28;20326;-76
2022/04/26 09:21:15;;;;;;;6.35;3.90;;;;;;;;;;5053980;28;20057;-73
2022/04/26 09:23:42;;;;;;;4.82;4.13;;;;;;;;;;5053868;28;20081;-77
2022/04/26 09:26:11;;;;;;;4.50;4.10;;;;;;;;;;5053949;28;20045;-77
2022/04/26 09:28:39;;;;;;;3.70;3.40;;;;;;;;;;5054003;28;20099;-77
2022/04/26 09:31:16;;;;;;;3.95;3.55;;;;;;;;;;5053827;28;20091;-74
2022/04/26 09:33:47;;;;;;;5.82;4.65;;;;;;;;;;5053412;28;20041;-74
2022/04/26 09:36:14;;;;;;;4.47;3.78;;;;;;;;;;5053607;28;20072;-74
2022/04/26 09:38:47;;;;;;;3.90;3.60;;;;;;;;;;5050694;28;20121;-73
2022/04/26 09:41:14;;;;;;;4.63;3.88;;;;;;;;;;5053208;28;20083;-72
2022/04/26 09:43:40;;;;;;;5.57;3.60;;;;;;;;;;5051307;28;20080;-75
2022/04/26 09:46:08;;;;;;;4.30;3.80;;;;;;;;;;5048880;28;20052;-73
2022/04/26 09:48:36;;;;;;;5.63;3.60;;;;;;;;;;5053010;28;20072;-74
2022/04/26 09:51:03;;;;;;;3.50;3.17;;;;;;;;;;5051928;28;20528;-74
2022/04/26 09:53:32;;;;;;;4.80;3.55;;;;;;;;;;5053076;28;20505;-75
2022/04/26 09:56:04;;;;;;;4.93;3.70;;;;;;;;;;5051839;28;20044;-74
2022/04/26 09:58:48;;;;;;;3.75;3.45;;;;;;;;;;5052972;28;20077;-74
2022/04/26 10:01:15;;;;;;;4.18;3.67;;;;;;;;;;5052636;28;20501;-75
2022/04/26 10:03:43;;;;;;;3.05;2.75;;;;;;;;;;5052868;28;20068;-80
2022/04/26 10:06:12;;;;;;;5.07;3.17;;;;;;;;;;5051688;28;20092;-76
2022/04/26 10:08:39;;;;;;;3.08;2.80;;;;;;;;;;5053147;28;20048;-74
2022/04/26 10:11:06;;;;;;;;;;;;;;;;;;5050602;28;20091;-73
2022/04/26 10:13:36;;;;;;;3.55;3.33;;;;;;;;;;5052752;28;19932;-76
2022/04/26 10:16:04;;;;;;;4.25;3.45;;;;;;;;;;5042770;28;20045;-75
2022/04/26 10:18:38;;;;;;;5.38;3.10;;;;;;;;;;5049371;28;20045;-74
2022/04/26 10:21:05;;;;;;;3.03;2.72;;;;;;;;;;5053176;28;20045;-74
2022/04/26 10:23:50;;;;;;;4.22;3.10;;;;;;;;;;5052375;28;20517;-74
2022/04/26 10:26:23;;;;;;;4.63;2.95;;;;;;;;;;5039666;28;20049;-75
2022/04/26 10:28:51;;;;;;;3.25;2.63;;;;;;;;;;5052495;28;20500;-75
2022/04/26 10:31:17;;;;;;;2.72;2.47;;;;;;;;;;5052720;28;20098;-75
2022/04/26 10:33:47;;;;;;;2.50;2.30;;;;;;;;;;5053139;28;20057;-75
2022/04/26 10:36:20;;;;;;;2.63;2.42;;;;;;;;;;5052452;28;20076;-75
2022/04/26 10:39:05;;;;;;;2.40;2.20;;;;;;;;;;5051098;28;20489;-75
2022/04/26 10:41:33;;;;;;;1.80;1.70;;;;;;;;;;5052338;28;20041;-75
2022/04/26 10:44:33;;;;;;;1.70;1.60;;;;;;;;;;5052505;28;20098;-75
2022/04/26 10:47:02;;;;;;;1.85;1.60;;;;;;;;;;5052166;28;20493;-75
2022/04/26 10:49:32;;;;;;;1.85;1.75;;;;;;;;;;5050923;28;20092;-75
2022/04/26 10:52:25;;;;;;;1.60;1.50;;;;;;;;;;5051417;28;20080;-75
2022/04/26 10:54:55;;;;;;;2.67;1.30;;;;;;;;;;5051628;28;20086;-76
2022/04/26 10:57:22;;;;;;;2.08;1.60;;;;;;;;;;5052286;28;20048;-74
2022/04/26 10:59:53;;;;;;;1.65;1.55;;;;;;;;;;5050795;28;20048;-76
2022/04/26 11:02:21;;;;;;;3.38;2.05;;;;;;;;;;5050543;28;20107;-73
2022/04/26 11:04:55;;;;;;;1.60;1.50;;;;;;;;;;5066949;28;20052;-74
2022/04/26 11:07:25;;;;;;;1.83;1.70;;;;;;;;;;5051733;28;20048;-74
2022/04/26 11:09:53;;;;;;;1.55;1.45;;;;;;;;;;5050587;28;20072;-74
2022/04/26 11:12:21;;;;;;;1.77;1.67;;;;;;;;;;5052021;28;20045;-76
2022/04/26 11:14:48;;;;;;;3.15;1.67;;;;;;;;;;5051341;28;20126;-74
2022/04/26 11:17:16;;;;;;;1.75;1.65;;;;;;;;;;5051942;28;20072;-75
2022/04/26 11:19:48;;;;;;;1.95;1.70;;;;;;;;;;5051895;28;20127;-75
2022/04/26 11:22:15;;;;;;;1.63;1.52;;;;;;;;;;5051642;28;20041;-75
2022/04/26 11:30:21;;;;;;;2.13;1.92;;;;;;;;;;5052091;28;20044;-77
2022/04/26 11:32:48;;;;;;;2.10;1.90;;;;;;;;;;5049821;28;20048;-78
2022/04/26 11:35:15;;;;;;;1.63;1.52;;;;;;;;;;5050503;28;20045;-75
2022/04/26 11:37:50;;;;;;;1.95;1.63;;;;;;;;;;5050895;28;20558;-74
2022/04/26 11:40:24;;;;;;;2.10;1.40;;;;;;;;;;5051004;28;20118;-74
2022/04/26 11:42:50;;;;;;;1.73;1.63;;;;;;;;;;5051182;28;20308;-74
2022/04/26 11:45:18;;;;;;;1.90;1.80;;;;;;;;;;5050867;28;20795;-74
2022/04/26 11:47:48;;;;;;;2.00;1.83;;;;;;;;;;5051626;28;20080;-74
2022/04/26 11:50:25;;;;;;;1.95;1.80;;;;;;;;;;5051338;28;20547;-74
2022/04/26 11:52:53;;;;;;;1.45;1.35;;;;;;;;;;5050215;28;20358;-74
2022/04/26 11:55:21;;;;;;;2.03;1.92;;;;;;;;;;5051344;28;20049;-74
2022/04/26 11:57:48;;;;;;;1.98;1.75;;;;;;;;;;5050899;28;20103;-74
2022/04/26 12:00:16;;;;;;;2.97;1.90;;;;;;;;;;5051092;28;20045;-74
2022/04/26 12:02:43;;;;;;;1.98;1.85;;;;;;;;;;5051242;28;20132;-74
2022/04/26 12:05:11;;;;;;;3.08;2.15;;;;;;;;;;5051741;28;20080;-74
2022/04/26 12:07:39;;;;;;;1.98;1.83;;;;;;;;;;5051113;28;20493;-74
2022/04/26 12:10:05;;;;;;;;;;;;;;;;;;5051544;28;20102;-75
2022/04/26 12:12:31;;;;;;;;;;;;;;;;;;5051797;28;19921;-75
2022/04/26 12:14:57;;;;;;;;;;;;;;;;;;5051447;28;20347;-75
2022/04/26 12:17:29;;;;;;;2.17;1.60;;;;;;;;;;5051313;28;19929;-76
2022/04/26 12:19:56;;;;;;;2.13;1.90;;;;;;;;;;5051402;28;20057;-76
2022/04/26 12:22:28;;;;;;;2.45;1.60;;;;;;;;;;5060748;28;20115;-76
2022/04/26 12:24:54;;;;;;;3.47;2.03;;;;;;;;;;5050917;28;20424;-75
2022/04/26 12:27:26;;;;;;;8.93;4.90;;;;;;;;;;5050438;28;20482;-77
2022/04/26 12:29:53;;;;;;;3.60;2.60;;;;;;;;;;5050677;28;20099;-76
2022/04/26 12:32:23;;;;;;;3.78;2.97;;;;;;;;;;5050924;28;20132;-75
2022/04/26 12:34:51;;;;;;;4.70;2.65;;;;;;;;;;5050021;28;20057;-75
2022/04/26 12:37:21;;;;;;;2.08;1.90;;;;;;;;;;5049241;28;20076;-74
2022/04/26 12:39:49;;;;;;;1.77;1.67;;;;;;;;;;5050886;28;20439;-75
2022/04/26 12:42:16;;;;;;;8.73;4.50;;;;;;;;;;5049441;28;20088;-74
2022/04/26 12:44:53;;;;;;;1.88;1.60;;;;;;;;;;5051017;28;20056;-75
2022/04/26 12:52:50;;;;;;;2.40;2.20;;;;;;;;;;5054595;28;20073;-75
2022/04/26 12:55:43;;;;;;;2.78;1.92;;;;;;;;;;5054466;28;20140;-75
2022/04/26 12:58:11;;;;;;;2.30;1.88;;;;;;;;;;5053635;28;20049;-75
2022/04/26 13:00:40;;;;;;;3.80;1.88;;;;;;;;;;5042070;28;20088;-77
2022/04/26 13:03:07;;;;;;;4.45;3.40;;;;;;;;;;5038527;28;20095;-74
2022/04/26 13:05:39;;;;;;;2.00;1.90;;;;;;;;;;5052872;28;20507;-78
2022/04/26 13:08:05;;;;;;;2.35;2.15;;;;;;;;;;5048792;28;20455;-74
2022/04/26 13:10:32;;;;;;;;;;;;;;;;;;5062990;28;20118;-71
2022/04/26 13:12:58;;;;;;;6.93;3.50;;;;;;;;;;5053153;28;19921;-72
2022/04/26 13:15:25;;;;;;;3.47;2.47;;;;;;;;;;5053737;28;20072;-70
2022/04/26 13:17:53;;;;;;;2.78;1.90;;;;;;;;;;5053432;28;20538;-75
2022/04/26 13:20:20;;;;;;;3.42;2.00;;;;;;;;;;5053638;28;20394;-80
2022/04/26 13:22:46;;;;;;;;;;;;;;;;;;5054253;28;20079;-80
2022/04/26 13:25:16;;;;;;;2.28;2.08;;;;;;;;;;5054051;28;19921;-73
2022/04/26 13:27:42;;;;;;;2.42;2.20;;;;;;;;;;5053925;28;20106;-75
2022/04/26 13:30:08;;;;;;;;;;;;;;;;;;5054264;28;20083;-75
2022/04/26 13:32:35;;;;;;;2.50;2.30;;;;;;;;;;5053602;28;20434;-78
2022/04/26 13:35:03;;;;;;;2.15;2.03;;;;;;;;;;5053318;28;20092;-80
2022/04/26 13:37:30;;;;;;;2.22;2.13;;;;;;;;;;5054026;28;20049;-73
2022/04/26 13:40:00;;;;;;;2.28;2.17;;;;;;;;;;5051981;28;20077;-74
2022/04/26 13:42:27;;;;;;;3.75;2.13;;;;;;;;;;5065436;28;20044;-74
2022/04/26 13:44:58;;;;;;;3.53;2.35;;;;;;;;;;5053238;28;20053;-75
2022/04/26 13:47:25;;;;;;;4.82;2.53;;;;;;;;;;5053319;28;20064;-73
2022/04/26 13:49:52;;;;;;;3.10;2.75;;;;;;;;;;5053650;28;20091;-75
2022/04/26 13:52:20;;;;;;;3.15;2.13;;;;;;;;;;5053177;28;20516;-75
2022/04/26 13:54:46;;;;;;;2.47;2.28;;;;;;;;;;5052915;28;20049;-74
2022/04/26 13:57:13;;;;;;;2.70;2.30;;;;;;;;;;5053270;28;20098;-75
2022/04/26 13:59:39;;;;;;;2.50;2.30;;;;;;;;;;5052899;28;20489;-74
2022/04/26 14:02:07;;;;;;;4.18;3.78;;;;;;;;;;5053603;28;20179;-76
2022/04/26 14:04:33;;;;;;;;;;;;;;;;;;5053521;28;20398;-72
2022/04/26 14:07:00;;;;;;;3.83;2.67;;;;;;;;;;5053040;28;19982;-72
2022/04/26 14:09:26;;;;;;;2.58;2.38;;;;;;;;;;5053131;28;20080;-72
2022/04/26 14:11:56;;;;;;;2.78;2.50;;;;;;;;;;5052833;28;20083;-72
2022/04/26 14:22:43;;;;;;;3.55;3.20;;;;;;;;;;5050778;28;20136;-75
2022/04/26 14:25:11;;;;;;;2.17;2.08;;;;;;;;;;5052809;28;20103;-75
2022/04/26 14:27:37;;;;;;;;;;;;;;;;;;5053327;28;20095;-79
2022/04/26 14:30:04;;;;;;;3.53;2.38;;;;;;;;;;5052755;28;19959;-71
2022/04/26 14:32:53;;;;;;;2.33;2.13;;;;;;;;;;5052731;28;20135;-69
2022/04/26 14:35:19;;;;;;;2.33;2.13;;;;;;;;;;5050885;28;20057;-72
2022/04/26 14:37:53;;;;;;;2.55;2.05;;;;;;;;;;5052356;28;20041;-71
2022/04/26 14:40:19;;;;;;;1.98;1.88;;;;;;;;;;5051305;28;20052;-72
2022/04/26 14:42:46;;;;;;;3.05;1.80;;;;;;;;;;5052262;28;20127;-70
2022/04/26 14:45:13;;;;;;;2.30;2.13;;;;;;;;;;5052481;28;20199;-71
2022/04/26 14:47:40;;;;;;;;;;;;;;;;;;5052766;28;20084;-71
2022/04/26 14:50:08;;;;;;;2.10;1.95;;;;;;;;;;5051936;28;19927;-71
2022/04/26 14:52:36;;;;;;;2.70;2.25;;;;;;;;;;5067652;28;20056;-71
2022/04/26 14:55:08;;;;;;;4.00;2.55;;;;;;;;;;5052065;28;20513;-71
2022/04/26 14:57:37;;;;;;;8.60;2.13;;;;;;;;;;5050761;28;20451;-70
2022/04/26 15:00:05;;;;;;;48.17;5.22;;;;;;;;;;5051883;28;20095;-71
2022/04/26 15:02:38;;;;;;;1.70;1.60;;;;;;;;;;5067514;28;20041;-70
2022/04/26 15:05:07;;;;;;;10.82;2.47;;;;;;;;;;5052231;28;20052;-71
2022/04/26 15:09:42;;;;;;;13.88;2.45;;;;;;;;;;5051682;28;20068;-68
2022/04/26 15:10:20;;;;;;;4.07;2.63;;;;;;;;;;5049026;28;20069;-71
2022/04/26 15:18:17;;;;;;;3.88;2.35;;;;;;;;;;5050495;28;20504;-75
2022/04/26 15:20:49;;;;;;;3.80;2.00;;;;;;;;;;5051461;28;20092;-71
2022/04/26 15:23:16;;;;;;;3.15;2.22;;;;;;;;;;5052070;28;20096;-69
2022/04/26 15:25:50;;;;;;;2.70;2.33;;;;;;;;;;5051601;28;20553;-69
2022/04/26 15:28:17;;;;;;;4.28;2.80;;;;;;;;;;5051882;28;20049;-69
2022/04/26 15:30:45;;;;;;;;;;;;;;;;;;5051907;28;20095;-69
2022/04/26 15:33:12;;;;;;;3.15;2.40;;;;;;;;;;5050717;28;19970;-69
2022/04/26 15:35:39;;;;;;;3.67;2.72;;;;;;;;;;5051254;28;20053;-69
2022/04/26 15:38:07;;;;;;;2.25;2.03;;;;;;;;;;5051358;28;20045;-68
2022/04/26 15:40:34;;;;;;;2.40;2.10;;;;;;;;;;5051613;28;20057;-68
2022/04/26 15:43:00;;;;;;;2.10;2.00;;;;;;;;;;5051438;28;20048;-69
2022/04/26 15:45:27;;;;;;;2.92;2.72;;;;;;;;;;5050846;28;20174;-71
2022/04/26 15:47:53;;;;;;;3.92;2.33;;;;;;;;;;5050033;28;20099;-71
2022/04/26 15:50:20;;;;;;;2.25;2.05;;;;;;;;;;5051074;28;20049;-70
2022/04/26 15:52:46;;;;;;;2.30;1.77;;;;;;;;;;5051059;28;20076;-71
2022/04/26 15:55:12;;;;;;;1.83;1.73;;;;;;;;;;5051432;28;20118;-74
2022/04/26 15:57:39;;;;;;;2.33;1.88;;;;;;;;;;5051069;28;20080;-71
2022/04/26 16:00:06;;;;;;;2.67;2.20;;;;;;;;;;5050829;28;20084;-68
2022/04/26 16:02:33;;;;;;;2.47;2.27;;;;;;;;;;5051138;28;20136;-70
2022/04/26 16:05:00;;;;;;;2.13;1.92;;;;;;;;;;5050914;28;20068;-71
2022/04/26 16:07:32;;;;;;;3.22;2.20;;;;;;;;;;5051644;28;20049;-71
2022/04/26 16:20:58;;;;;;;2.30;2.10;;;;;;;;;;5050237;28;20049;-75
2022/04/26 16:23:25;;;;;;;2.30;2.10;;;;;;;;;;5051788;28;20088;-71
2022/04/26 16:25:52;;;;;;;2.58;2.38;;;;;;;;;;5050372;28;20081;-71
2022/04/26 16:28:19;;;;;;;;;;;;;;;;;;5050813;28;20076;-71
2022/04/26 16:30:46;;;;;;;3.30;2.42;;;;;;;;;;5053132;28;20380;-73
2022/04/26 16:33:12;;;;;;;2.40;2.20;;;;;;;;;;5053004;28;20447;-74
2022/04/26 16:35:41;;;;;;;2.25;2.10;;;;;;;;;;5052761;28;20144;-72
2022/04/26 16:38:07;;;;;;;5.22;4.80;;;;;;;;;;5053377;28;20049;-79
2022/04/26 16:40:34;;;;;;;13.07;11.93;;;;;;;;;;5052339;28;20045;-73
2022/04/26 16:43:02;;;;;;;6.43;4.50;;;;;;;;;;5052935;28;20063;-72
2022/04/26 16:45:29;;;;;;;3.08;2.33;;;;;;;;;;5052948;28;20049;-71
2022/04/26 16:47:55;;;;;;;3.95;2.70;;;;;;;;;;5051636;28;20069;-72
2022/04/26 16:50:22;;;;;;;3.05;2.08;;;;;;;;;;5053148;28;20386;-72
2022/04/26 16:52:49;;;;;;;9.27;7.40;;;;;;;;;;5053067;28;20489;-71
2022/04/26 16:55:16;;;;;;;4.38;3.72;;;;;;;;;;5046930;28;20332;-71
2022/04/26 16:57:43;;;;;;;3.38;2.22;;;;;;;;;;5041862;28;20076;-71
2022/04/26 17:00:09;;;;;;;3.38;3.03;;;;;;;;;;5047608;28;20084;-71
2022/04/26 17:02:36;;;;;;;2.90;2.63;;;;;;;;;;5052896;28;20091;-72
2022/04/26 17:05:02;;;;;;;4.75;2.20;;;;;;;;;;5053301;28;20049;-72
2022/04/26 17:07:29;;;;;;;2.80;2.38;;;;;;;;;;5052792;28;20132;-72
2022/04/26 17:09:55;;;;;;;2.80;2.55;;;;;;;;;;5052123;28;20079;-72
2022/04/26 17:12:22;;;;;;;2.00;1.90;;;;;;;;;;5053176;28;20542;-72
2022/04/26 17:14:49;;;;;;;2.70;2.50;;;;;;;;;;5052087;28;20437;-73
2022/04/26 17:17:16;;;;;;;2.67;2.47;;;;;;;;;;5049789;28;20067;-71
2022/04/26 17:19:43;;;;;;;3.22;2.30;;;;;;;;;;5052403;28;20091;-73
2022/04/26 17:22:09;;;;;;;2.75;2.15;;;;;;;;;;5052143;28;20116;-71
2022/04/26 17:27:21;;;;;;;6.75;3.25;;;;;;;;;;5051456;28;20077;-71
2022/04/26 17:29:48;;;;;;;2.70;2.50;;;;;;;;;;5051836;28;20049;-71
2022/04/26 17:32:16;;;;;;;3.03;2.47;;;;;;;;;;5050896;28;20072;-71
2022/04/26 17:34:43;;;;;;;8.63;2.60;;;;;;;;;;5052534;28;20071;-71
2022/04/26 17:37:11;;;;;;;2.97;2.70;;;;;;;;;;5052026;28;20099;-72
2022/04/26 17:39:39;;;;;;;4.10;3.40;;;;;;;;;;5051357;28;20357;-73
2022/04/26 17:42:06;;;;;;;;;;;;;;;;;;5053874;28;20075;-76
2022/04/26 17:44:34;;;;;;;2.92;2.72;;;;;;;;;;5051767;28;19924;-77
2022/04/26 17:47:01;;;;;;;3.70;3.00;;;;;;;;;;5052786;28;20129;-76
2022/04/26 17:49:48;;;;;;;;;;;;;;;;;;5052021;28;20049;-74
2022/04/26 17:52:14;;;;;;;2.88;2.47;;;;;;;;;;5051542;28;19964;-73
2022/04/26 17:57:26;;;;;;;4.10;2.60;;;;;;;;;;5052392;28;20090;-76
2022/04/26 17:59:52;;;;;;;2.60;2.40;;;;;;;;;;5053184;28;20077;-74
2022/04/26 18:02:19;;;;;;;3.22;2.55;;;;;;;;;;5052699;28;20072;-72
2022/04/26 18:04:45;;;;;;;2.60;2.20;;;;;;;;;;5052224;28;20079;-72
2022/04/26 18:07:12;;;;;;;2.75;2.25;;;;;;;;;;5053277;28;20127;-72
2022/04/26 18:09:38;;;;;;;3.90;2.35;;;;;;;;;;5052917;28;20782;-76
2022/04/26 18:12:05;;;;;;;2.58;2.38;;;;;;;;;;5053100;28;20060;-76
2022/04/26 18:14:31;;;;;;;3.22;2.10;;;;;;;;;;5053228;28;20136;-76
2022/04/26 18:16:58;;;;;;;2.50;2.22;;;;;;;;;;5052697;28;20468;-76
2022/04/26 18:19:25;;;;;;;3.28;2.33;;;;;;;;;;5052917;28;20052;-77
2022/04/26 18:21:51;;;;;;;2.40;2.20;;;;;;;;;;5052517;28;20080;-75
2022/04/26 18:24:19;;;;;;;2.40;2.20;;;;;;;;;;5051923;28;20487;-75
2022/04/26 18:26:45;;;;;;;;;;;;;;;;;;5049058;28;20091;-76
2022/04/26 18:29:19;;;;;;;2.10;2.00;;;;;;;;;;5049340;28;19964;-76
2022/04/26 18:31:47;;;;;;;2.25;2.10;;;;;;;;;;5048386;28;20098;-77
2022/04/26 18:34:15;;;;;;;2.55;2.35;;;;;;;;;;5050807;28;20171;-76
2022/04/26 18:36:41;;;;;;;2.60;2.40;;;;;;;;;;5051152;28;20040;-76
2022/04/26 18:39:09;;;;;;;2.47;2.28;;;;;;;;;;5051111;28;20420;-76
2022/04/26 18:41:35;;;;;;;3.75;2.58;;;;;;;;;;5051107;28;20106;-77
2022/04/26 18:44:03;;;;;;;2.03;1.92;;;;;;;;;;5049833;28;20053;-77
2022/04/26 18:46:29;;;;;;;3.80;2.75;;;;;;;;;;5050357;28;20092;-79
2022/04/26 18:48:55;;;;;;;2.28;2.08;;;;;;;;;;5050926;28;20051;-79
2022/04/26 18:51:22;;;;;;;2.45;2.25;;;;;;;;;;5050993;28;20045;-78
2022/04/26 18:53:48;;;;;;;3.25;2.10;;;;;;;;;;5047794;28;20088;-76
2022/04/26 18:56:15;;;;;;;4.88;2.75;;;;;;;;;;5048726;28;20445;-79
2022/04/26 18:58:43;;;;;;;3.70;2.28;;;;;;;;;;5050986;28;20132;-78
2022/04/26 19:01:09;;;;;;;;;;;;;;;;;;5050015;28;20513;-76
2022/04/26 19:03:35;;;;;;;2.55;2.35;;;;;;;;;;5051064;28;19941;-77
2022/04/26 19:06:03;;;;;;;2.28;2.05;;;;;;;;;;5051046;28;20444;-78
2022/04/26 19:08:30;;;;;;;2.53;2.33;;;;;;;;;;5050842;28;20092;-76
2022/04/26 19:13:41;;;;;;;3.13;2.33;;;;;;;;;;5051015;28;20131;-81
2022/04/26 19:16:08;;;;;;;4.30;2.38;;;;;;;;;;5049241;28;20405;-82
2022/04/26 19:18:34;;;;;;;3.43;2.33;;;;;;;;;;5049584;28;20075;-80
2022/04/26 19:21:01;;;;;;;3.92;2.30;;;;;;;;;;5048643;28;20233;-79
2022/04/26 19:23:28;;;;;;;2.77;2.57;;;;;;;;;;5049224;28;20110;-78
2022/04/26 19:25:55;;;;;;;3.08;2.03;;;;;;;;;;5050709;28;20053;-79